Time;durP1;ratioP1;P1;durP2;ratioP2;P2;SDS_P1;SDS_P2;PMS_P1;PMS_P2;Temp;Humidity;BMP_temperature;BMP_pressure;BME280_temperature;BME280_humidity;BME280_pressure;Samples;Min_cycle;Max_cycle;Signal;HPM_P1;HPM_P2
2022/04/13 00:01:40;;;;;;;31.48;2.65;;;;;;;20.29;50.78;99465.34;7313857;19;129921;-38
2022/04/13 00:04:05;;;;;;;29.90;2.23;;;;;;;20.27;51.56;99458.59;7312982;19;158690;-40
2022/04/13 00:06:30;;;;;;;9.63;0.87;;;;;;;19.98;48.50;99455.88;7311827;19;150983;-40
2022/04/13 00:08:55;;;;;;;42.63;3.27;;;;;;;19.95;48.33;99461.38;7310473;19;153890;-37
2022/04/13 00:11:23;;;;;;;23.67;1.85;;;;;;;19.91;48.31;99438.28;7311647;19;130917;-41
2022/04/13 00:13:49;;;;;;;34.33;2.88;;;;;;;20.02;47.82;99456.44;7313268;19;130875;-40
2022/04/13 00:16:14;;;;;;;29.77;2.53;;;;;;;19.97;47.88;99448.19;7311867;19;129940;-40
2022/04/13 00:18:39;;;;;;;16.92;1.48;;;;;;;20.01;47.36;99454.81;7310360;19;154672;-38
2022/04/13 00:21:05;;;;;;;24.25;1.98;;;;;;;19.94;47.67;99430.19;7312800;19;130286;-37
2022/04/13 00:23:31;;;;;;;22.08;1.73;;;;;;;20.04;47.94;99444.09;7312659;19;158595;-39
2022/04/13 00:25:58;;;;;;;39.88;3.17;;;;;;;20.10;47.61;99444.38;7313042;19;130191;-39
2022/04/13 00:28:23;;;;;;;21.50;1.70;;;;;;;20.11;47.36;99445.22;7312980;19;129938;-39
2022/04/13 00:30:48;;;;;;;34.22;2.83;;;;;;;20.13;47.10;99448.53;7313143;19;130179;-41
2022/04/13 00:33:13;;;;;;;22.17;1.90;;;;;;;20.07;46.71;99426.38;7311828;19;159241;-37
2022/04/13 00:35:39;;;;;;;25.02;1.92;;;;;;;20.10;47.32;99439.16;7310138;19;154881;-41
2022/04/13 00:38:05;;;;;;;36.00;2.95;;;;;;;20.07;47.32;99439.44;7312074;19;150023;-40
2022/04/13 00:40:30;;;;;;;21.25;1.45;;;;;;;20.27;47.47;99437.72;7313882;19;130320;-37
2022/04/13 00:42:55;;;;;;;18.60;1.77;;;;;;;20.15;47.92;99420.50;7311591;19;157237;-39
2022/04/13 00:45:20;;;;;;;36.57;3.30;;;;;;;20.21;49.18;99435.66;7309441;19;154491;-38
2022/04/13 00:47:46;;;;;;;34.03;2.85;;;;;;;20.19;49.75;99422.75;7311800;19;154680;-37
2022/04/13 00:50:11;;;;;;;35.45;2.72;;;;;;;20.23;49.92;99429.31;7310477;19;129723;-40
2022/04/13 00:52:40;;;;;;;17.23;1.52;;;;;;;20.26;49.88;99430.84;7311954;19;137781;-41
2022/04/13 00:55:10;;;;;;;34.25;2.90;;;;;;;20.27;50.12;99425.50;7313025;19;129353;-40
2022/04/13 00:57:37;;;;;;;23.92;1.90;;;;;;;20.29;50.16;99433.19;7310760;19;130098;-40
2022/04/13 01:00:06;;;;;;;;;;;;;;;20.32;51.30;99432.91;7308816;19;130989;-36
2022/04/13 01:02:32;;;;;;;25.05;1.92;;;;;;;20.31;50.45;99431.28;7312446;19;130965;-37
2022/04/13 01:05:04;;;;;;;28.02;2.15;;;;;;;20.28;51.99;99434.97;7311283;19;129407;-35
2022/04/13 01:07:30;;;;;;;26.90;2.15;;;;;;;20.15;50.66;99410.91;7311994;19;130523;-40
2022/04/13 01:09:56;;;;;;;30.38;2.58;;;;;;;20.07;48.68;99434.22;7309053;19;131522;-38
2022/04/13 01:12:21;;;;;;;24.92;2.08;;;;;;;19.94;48.52;99436.25;7312041;19;131849;-39
2022/04/13 01:14:47;;;;;;;27.90;2.25;;;;;;;20.00;50.43;99432.28;7312002;19;130371;-36
2022/04/13 01:17:12;;;;;;;30.83;2.60;;;;;;;20.10;50.38;99438.31;7309324;19;154755;-39
2022/04/13 01:19:39;;;;;;;25.90;2.28;;;;;;;19.96;49.20;99438.72;7309534;19;158305;-38
2022/04/13 01:22:20;;;;;;;27.88;2.25;;;;;;;19.83;49.40;99420.69;7311906;19;130538;-38
2022/04/13 01:24:46;;;;;;;26.67;2.17;;;;;;;20.00;48.87;99429.69;7311070;19;129638;-40
2022/04/13 01:27:14;;;;;;;32.92;2.75;;;;;;;20.01;47.91;99432.16;7311576;19;129789;-39
2022/04/13 01:29:40;;;;;;;29.35;2.35;;;;;;;19.97;48.34;99427.31;7310962;19;130249;-39
2022/04/13 01:32:05;;;;;;;36.40;2.92;;;;;;;20.02;47.89;99435.56;7311107;19;129673;-40
2022/04/13 01:34:31;;;;;;;37.33;3.15;;;;;;;20.03;48.21;99430.22;7311212;19;129723;-38
2022/04/13 01:36:56;;;;;;;26.25;2.10;;;;;;;20.03;47.59;99432.00;7309143;19;154445;-40
2022/04/13 01:39:21;;;;;;;17.35;1.55;;;;;;;20.06;47.83;99432.56;7307485;19;158372;-38
2022/04/13 01:41:48;;;;;;;35.00;2.72;;;;;;;19.92;48.05;99419.06;7310817;19;158648;-39
2022/04/13 01:44:15;;;;;;;30.80;2.60;;;;;;;20.08;47.40;99441.06;7311141;19;128993;-36
2022/04/13 01:46:41;;;;;;;25.38;2.00;;;;;;;20.09;47.25;99447.13;7310554;19;129747;-41
2022/04/13 01:49:06;;;;;;;16.40;1.45;;;;;;;20.06;47.82;99439.56;7310155;19;130259;-40
2022/04/13 01:51:31;;;;;;;21.03;1.60;;;;;;;20.09;47.57;99444.53;7309459;19;158820;-41
2022/04/13 01:53:56;;;;;;;25.00;1.90;;;;;;;20.11;48.00;99450.44;7308468;19;154930;-37
2022/04/13 01:56:21;;;;;;;22.20;1.87;;;;;;;20.05;47.09;99432.69;7306813;19;153983;-41
2022/04/13 01:58:47;;;;;;;34.83;2.67;;;;;;;20.16;47.45;99453.50;7307337;19;158363;-39
2022/04/13 02:01:12;;;;;;;27.97;2.47;;;;;;;20.31;47.54;99444.34;7309449;19;158407;-39
2022/04/13 02:03:38;;;;;;;37.40;3.00;;;;;;;20.24;48.14;99438.00;7310548;19;129379;-40
2022/04/13 02:06:06;;;;;;;12.10;0.95;;;;;;;20.24;49.50;99449.28;7309427;19;154081;-38
2022/04/13 02:08:32;;;;;;;44.72;3.55;;;;;;;20.25;50.00;99443.06;7308953;19;129823;-38
2022/04/13 02:10:58;;;;;;;21.42;1.75;;;;;;;20.18;50.37;99430.72;7309816;19;129208;-39
2022/04/13 02:13:23;;;;;;;29.73;2.38;;;;;;;20.29;49.52;99447.09;7311279;19;129591;-40
2022/04/13 02:15:48;;;;;;;13.13;1.37;;;;;;;20.20;50.25;99424.38;7307309;19;154128;-39
2022/04/13 02:18:17;;;;;;;35.58;2.83;;;;;;;20.31;50.76;99442.53;7307851;19;129065;-38
2022/04/13 02:20:42;;;;;;;22.40;2.15;;;;;;;20.31;50.75;99444.34;7309522;19;130457;-39
2022/04/13 02:23:07;;;;;;;29.52;2.55;;;;;;;20.32;50.70;99445.97;7308255;19;155071;-40
2022/04/13 02:25:36;;;;;;;31.30;2.72;;;;;;;20.31;50.94;99445.13;7308141;19;154260;-39
2022/04/13 02:28:05;;;;;;;10.88;0.93;;;;;;;20.30;51.18;99451.34;7310635;19;129393;-37
2022/04/13 02:30:31;;;;;;;21.92;1.75;;;;;;;20.04;48.77;99450.16;7311921;19;130946;-40
2022/04/13 02:32:56;;;;;;;33.20;2.70;;;;;;;19.99;48.46;99451.50;7309355;19;129077;-38
2022/04/13 02:35:22;;;;;;;42.17;3.60;;;;;;;19.99;48.43;99449.72;7308975;19;129478;-37
2022/04/13 02:37:47;;;;;;;24.70;2.35;;;;;;;20.07;48.10;99454.25;7306400;19;158453;-40
2022/04/13 02:40:13;;;;;;;30.97;2.53;;;;;;;20.05;47.77;99445.72;7305031;19;159040;-39
2022/04/13 02:42:39;;;;;;;23.97;1.93;;;;;;;20.06;48.04;99450.00;7309290;19;130730;-39
2022/04/13 02:45:05;;;;;;;41.40;3.35;;;;;;;20.13;47.23;99443.31;7308016;19;129259;-39
2022/04/13 02:47:34;;;;;;;7.00;0.70;;;;;;;20.27;50.65;99448.16;7308248;19;129998;-40
2022/04/13 02:50:02;;;;;;;25.67;2.13;;;;;;;20.13;49.87;99451.13;7307656;19;129187;-41
2022/04/13 02:52:28;;;;;;;33.50;2.58;;;;;;;20.00;48.96;99437.50;7308486;19;129135;-40
2022/04/13 02:54:55;;;;;;;24.83;1.83;;;;;;;20.05;48.44;99441.34;7308444;19;129504;-40
2022/04/13 02:57:20;;;;;;;34.60;2.60;;;;;;;20.09;48.50;99436.69;7306847;19;130796;-38
2022/04/13 02:59:46;;;;;;;29.83;2.37;;;;;;;20.10;48.11;99449.59;7305575;19;158402;-39
2022/04/13 03:02:15;;;;;;;31.40;2.53;;;;;;;20.13;47.87;99430.25;7307567;19;131233;-36
2022/04/13 03:04:43;;;;;;;21.95;1.75;;;;;;;20.14;47.40;99434.50;7308406;19;130500;-40
2022/04/13 03:07:10;;;;;;;28.23;2.28;;;;;;;20.15;47.81;99433.56;7307717;19;131209;-38
2022/04/13 03:09:35;;;;;;;33.55;2.60;;;;;;;20.17;47.28;99429.03;7306442;19;130433;-37
2022/04/13 03:12:01;;;;;;;31.70;2.60;;;;;;;20.22;47.27;99442.50;7308462;19;155122;-41
2022/04/13 03:14:26;;;;;;;41.10;3.45;;;;;;;20.18;47.13;99434.13;7307371;19;154577;-40
2022/04/13 03:16:51;;;;;;;23.98;2.05;;;;;;;20.27;47.72;99435.09;7307107;19;130105;-37
2022/04/13 03:19:17;;;;;;;27.40;2.10;;;;;;;20.29;46.85;99435.81;7306501;19;158269;-39
2022/04/13 03:21:42;;;;;;;39.73;3.13;;;;;;;20.29;47.50;99433.19;7306382;19;155048;-38
2022/04/13 03:24:07;;;;;;;27.00;2.13;;;;;;;20.25;47.44;99431.81;7315142;19;154048;-38
2022/04/13 03:26:32;;;;;;;3.50;0.38;;;;;;;20.49;47.83;99416.59;7314659;19;130727;-39
2022/04/13 03:28:58;;;;;;;33.50;2.72;;;;;;;20.30;49.32;99417.41;7311452;19;158370;-40
2022/04/13 03:31:23;;;;;;;21.20;1.60;;;;;;;20.30;50.25;99424.38;7313293;19;154509;-39
2022/04/13 03:33:48;;;;;;;38.33;3.15;;;;;;;20.30;49.90;99425.22;7312589;19;153850;-36
2022/04/13 03:36:16;;;;;;;28.08;2.25;;;;;;;20.31;49.89;99423.44;7313429;19;131233;-41
2022/04/13 03:38:41;;;;;;;27.60;2.22;;;;;;;20.28;50.45;99426.34;7313550;19;130891;-39
2022/04/13 03:41:06;;;;;;;31.40;2.72;;;;;;;20.27;50.35;99398.56;7312818;19;141772;-38
2022/04/13 03:43:32;;;;;;;21.48;1.67;;;;;;;20.31;50.96;99426.06;7311788;19;154303;-40
2022/04/13 03:45:57;;;;;;;16.73;1.40;;;;;;;20.36;51.06;99426.47;7312066;19;158452;-41
2022/04/13 03:48:22;;;;;;;24.33;2.00;;;;;;;20.38;51.23;99437.59;7314837;19;135528;-40
2022/04/13 03:50:49;;;;;;;39.07;3.47;;;;;;;20.37;51.27;99430.72;7313226;19;154552;-40
2022/04/13 03:53:15;;;;;;;26.50;2.22;;;;;;;20.36;51.11;99434.31;7314048;19;130145;-39
2022/04/13 03:55:40;;;;;;;25.48;2.22;;;;;;;20.11;48.58;99427.78;7312578;19;159181;-39
2022/04/13 03:58:05;;;;;;;35.95;2.85;;;;;;;19.93;48.75;99416.31;7310476;19;158550;-37
2022/04/13 04:00:31;;;;;;;16.70;1.52;;;;;;;20.07;48.38;99438.59;7312802;19;154887;-40
2022/04/13 04:02:57;;;;;;;25.75;1.95;;;;;;;20.08;48.50;99437.66;7315467;19;129728;-39
2022/04/13 04:05:22;;;;;;;51.25;4.47;;;;;;;20.15;47.86;99433.56;7308323;19;157912;-40
2022/04/13 04:07:49;;;;;;;49.22;4.15;;;;;;;20.14;48.27;99445.78;7312648;19;130881;-38
2022/04/13 04:10:14;;;;;;;16.13;1.55;;;;;;;20.20;47.86;99445.25;7311426;19;129498;-39
2022/04/13 04:12:41;;;;;;;36.65;3.03;;;;;;;20.18;47.14;99451.59;7313601;19;154774;-36
2022/04/13 04:15:09;;;;;;;13.05;1.20;;;;;;;20.22;47.45;99450.34;7314630;19;129619;-32
2022/04/13 04:17:34;;;;;;;28.83;2.25;;;;;;;20.23;47.34;99457.25;7309722;19;129674;-35
2022/04/13 04:19:59;;;;;;;26.33;2.15;;;;;;;20.23;46.98;99457.25;7309777;19;156107;-40
2022/04/13 04:22:25;;;;;;;42.97;3.42;;;;;;;20.21;47.09;99448.72;7311040;19;153219;-35
2022/04/13 04:24:51;;;;;;;25.00;2.07;;;;;;;20.21;47.26;99452.13;7314555;19;130516;-29
2022/04/13 04:27:16;;;;;;;29.95;2.42;;;;;;;20.35;47.05;99451.75;7312128;19;130808;-31
2022/04/13 04:29:41;;;;;;;38.17;3.10;;;;;;;20.36;48.20;99452.59;7308579;19;152897;-37
2022/04/13 04:32:07;;;;;;;33.70;2.55;;;;;;;20.34;49.16;99457.13;7310058;19;154111;-35
2022/04/13 04:34:33;;;;;;;31.25;2.63;;;;;;;20.35;49.80;99456.97;7311623;19;130654;-36
2022/04/13 04:36:59;;;;;;;48.50;3.80;;;;;;;20.35;50.11;99437.88;7310928;19;130970;-34
2022/04/13 04:39:24;;;;;;;20.80;1.77;;;;;;;20.51;49.73;99449.44;7311299;19;129990;-38
2022/04/13 04:41:49;;;;;;;36.25;3.13;;;;;;;20.35;50.41;99440.47;7309796;19;153965;-33
2022/04/13 04:44:14;;;;;;;38.38;3.40;;;;;;;20.43;50.76;99453.69;7311943;19;158312;-34
2022/04/13 04:46:40;;;;;;;33.15;2.92;;;;;;;20.39;51.21;99449.69;7310773;19;139850;-35
2022/04/13 04:49:06;;;;;;;45.08;3.55;;;;;;;20.42;50.65;99449.44;7310098;19;131264;-35
2022/04/13 04:51:31;;;;;;;9.67;1.07;;;;;;;20.36;51.25;99453.38;7312872;19;129738;-32
2022/04/13 04:53:58;;;;;;;40.63;3.45;;;;;;;20.11;49.08;99453.88;7312711;19;131736;-39
2022/04/13 04:56:23;;;;;;;26.65;2.13;;;;;;;20.11;48.75;99458.25;7311988;19;130474;-34
2022/04/13 04:58:49;;;;;;;32.15;2.70;;;;;;;20.25;50.65;99457.91;7308641;19;154766;-38
2022/04/13 05:01:14;;;;;;;30.17;2.75;;;;;;;20.23;50.92;99465.88;7311223;19;150734;-34
2022/04/13 05:03:41;;;;;;;28.47;2.60;;;;;;;20.04;49.78;99464.97;7310225;19;146384;-37
2022/04/13 05:06:06;;;;;;;39.90;3.05;;;;;;;20.08;48.75;99467.16;7309876;19;130454;-37
2022/04/13 05:08:32;;;;;;;10.38;1.05;;;;;;;20.10;48.74;99454.81;7310451;19;153422;-38
2022/04/13 05:10:57;;;;;;;40.58;3.15;;;;;;;20.12;48.67;99458.13;7310728;19;140263;-37
2022/04/13 05:13:22;;;;;;;23.50;2.07;;;;;;;20.15;47.92;99464.88;7310329;19;159354;-36
2022/04/13 05:15:48;;;;;;;56.65;4.40;;;;;;;20.04;47.82;99444.09;7308434;19;158232;-30
2022/04/13 05:18:13;;;;;;;31.90;2.80;;;;;;;20.17;48.02;99470.81;7310173;19;129946;-38
2022/04/13 05:20:40;;;;;;;87.60;7.10;;;;;;;20.21;47.92;99459.94;7301799;19;132832;-33
2022/04/13 05:23:05;;;;;;;24.48;2.17;;;;;;;20.21;47.61;99467.78;7287539;19;130446;-35
2022/04/13 05:25:31;;;;;;;36.30;3.08;;;;;;;20.11;47.85;99450.44;7309920;19;158531;-32
2022/04/13 05:27:56;;;;;;;24.55;1.95;;;;;;;20.25;47.31;99473.56;7313325;19;129621;-36
2022/04/13 05:30:21;;;;;;;9.63;1.00;;;;;;;20.30;47.47;99466.16;7309376;19;154292;-34
2022/04/13 05:32:53;;;;;;;202.10;17.57;;;;;;;20.27;47.14;99476.88;7300345;19;159053;-33
2022/04/13 05:35:18;;;;;;;34.70;3.30;;;;;;;20.26;47.76;99476.03;7309456;19;130849;-34
2022/04/13 05:37:44;;;;;;;28.20;2.22;;;;;;;20.39;51.05;99475.81;7311666;19;129636;-29
2022/04/13 05:40:10;;;;;;;21.52;2.05;;;;;;;20.23;49.14;99476.31;7309635;19;129036;-37
2022/04/13 05:42:35;;;;;;;27.35;2.20;;;;;;;20.17;48.36;99471.63;7311912;19;129634;-37
2022/04/13 05:45:00;;;;;;;29.53;2.37;;;;;;;20.21;48.70;99477.41;7308587;19;158573;-39
2022/04/13 05:47:26;;;;;;;26.07;2.33;;;;;;;20.22;47.54;99473.84;7308553;19;155194;-34
2022/04/13 05:49:51;;;;;;;21.45;1.70;;;;;;;20.23;47.57;99472.91;7309991;19;129615;-34
2022/04/13 05:52:17;;;;;;;32.95;2.83;;;;;;;20.15;47.88;99457.06;7311220;19;130169;-33
2022/04/13 05:54:42;;;;;;;28.35;2.42;;;;;;;20.24;47.51;99477.97;7310867;19;129738;-39
2022/04/13 05:57:08;;;;;;;34.72;2.80;;;;;;;20.15;47.06;99462.28;7307941;19;138787;-34
2022/04/13 05:59:34;;;;;;;65.63;5.78;;;;;;;20.30;47.32;99487.03;7307704;19;130477;-36
2022/04/13 06:01:59;;;;;;;21.23;2.13;;;;;;;20.21;46.91;99477.41;7312200;19;129949;-35
2022/04/13 06:04:25;;;;;;;14.48;1.42;;;;;;;20.25;47.34;99489.22;7310344;19;129317;-33
2022/04/13 06:06:51;;;;;;;28.70;2.43;;;;;;;20.32;47.56;99485.13;7310970;19;129075;-38
2022/04/13 06:09:16;;;;;;;31.73;2.63;;;;;;;20.48;47.60;99490.66;7309763;19;129748;-36
2022/04/13 06:11:41;;;;;;;24.88;2.03;;;;;;;20.41;47.88;99495.59;7311046;19;150676;-40
2022/04/13 06:14:07;;;;;;;24.63;2.40;;;;;;;20.39;49.17;99499.31;7309803;19;157515;-38
2022/04/13 06:16:32;;;;;;;30.55;2.47;;;;;;;20.40;50.01;99500.94;7308940;19;154833;-39
2022/04/13 06:18:57;;;;;;;28.42;2.38;;;;;;;20.38;49.68;99500.25;7307223;19;154695;-37
2022/04/13 06:21:22;;;;;;;27.17;2.30;;;;;;;20.43;49.38;99503.28;7309073;19;157837;-32
2022/04/13 06:23:48;;;;;;;28.70;2.43;;;;;;;20.44;50.07;99495.31;7309479;19;158492;-36
2022/04/13 06:26:13;;;;;;;37.67;3.37;;;;;;;20.45;50.85;99501.38;7308835;19;154071;-33
2022/04/13 06:28:38;;;;;;;9.15;1.08;;;;;;;20.43;50.80;99487.63;7310679;19;129326;-33
2022/04/13 06:31:04;;;;;;;68.97;5.63;;;;;;;20.44;51.06;99497.13;7308716;19;158565;-35
2022/04/13 06:33:29;;;;;;;30.25;2.70;;;;;;;20.46;49.99;99492.59;7309882;19;140658;-30
2022/04/13 06:35:54;;;;;;;51.97;4.27;;;;;;;20.41;49.92;99500.81;7306972;19;153231;-32
2022/04/13 06:38:19;;;;;;;23.00;1.98;;;;;;;20.13;48.69;99485.06;7307776;19;154052;-33
2022/04/13 06:40:45;;;;;;;20.23;1.88;;;;;;;20.11;48.55;99498.25;7310349;19;160615;-33
2022/04/13 06:43:10;;;;;;;31.05;2.50;;;;;;;20.15;47.58;99493.59;7309996;19;130624;-36
2022/04/13 06:45:36;;;;;;;44.47;3.67;;;;;;;20.20;47.77;99507.91;7307797;19;154720;-34
2022/04/13 06:48:02;;;;;;;20.25;1.70;;;;;;;20.23;48.17;99512.06;7311405;19;131709;-34
2022/04/13 06:50:27;;;;;;;25.00;2.07;;;;;;;20.19;47.49;99518.47;7308243;19;130985;-38
2022/04/13 06:52:53;;;;;;;38.67;2.83;;;;;;;20.16;47.72;99518.75;7310581;19;131623;-39
2022/04/13 06:55:18;;;;;;;39.83;3.23;;;;;;;20.10;47.57;99495.75;7308359;19;154393;-32
2022/04/13 06:57:43;;;;;;;18.00;1.67;;;;;;;20.14;47.45;99494.53;7310070;19;153884;-44
2022/04/13 07:00:11;;;;;;;22.80;1.97;;;;;;;20.23;47.63;99512.06;7312040;19;159290;-39
2022/04/13 07:02:37;;;;;;;40.22;3.35;;;;;;;20.24;47.35;99524.13;7316467;19;130057;-35
2022/04/13 07:05:04;;;;;;;26.27;2.23;;;;;;;20.38;50.48;99521.13;7315463;19;129108;-37
2022/04/13 07:07:29;;;;;;;23.93;1.83;;;;;;;20.16;48.44;99511.72;7316001;19;129495;-37
2022/04/13 07:09:55;;;;;;;20.67;1.63;;;;;;;20.07;48.26;99501.22;7314425;19;130600;-40
2022/04/13 07:12:20;;;;;;;24.77;2.00;;;;;;;20.17;47.89;99521.22;7312359;19;131248;-34
2022/04/13 07:14:45;;;;;;;49.08;4.00;;;;;;;20.24;47.80;99529.34;7310155;19;154399;-37
2022/04/13 07:17:10;;;;;;;56.23;4.03;;;;;;;20.24;47.82;99529.34;7306356;19;154251;-35
2022/04/13 07:19:36;;;;;;;30.53;2.67;;;;;;;20.13;47.49;99511.16;7311211;19;159885;-40
2022/04/13 07:22:01;;;;;;;6.53;0.60;;;;;;;20.28;47.61;99526.34;7316413;19;131120;-37
2022/04/13 07:24:27;;;;;;;26.38;1.95;;;;;;;20.26;47.31;99527.44;7314170;19;156388;-32
2022/04/13 07:26:53;;;;;;;28.33;2.33;;;;;;;20.25;46.84;99524.00;7315449;19;130226;-29
2022/04/13 07:29:18;;;;;;;26.58;2.17;;;;;;;20.27;47.31;99524.69;7313516;19;130285;-36
2022/04/13 07:31:43;;;;;;;30.73;2.77;;;;;;;20.26;46.75;99522.22;7313948;19;157959;-33
2022/04/13 07:34:08;;;;;;;15.30;1.30;;;;;;;20.47;47.49;99536.84;7313877;19;154415;-31
2022/04/13 07:36:34;;;;;;;26.27;2.05;;;;;;;20.42;48.24;99527.75;7313645;19;154282;-35
2022/04/13 07:38:59;;;;;;;27.67;2.22;;;;;;;20.27;49.01;99513.41;7313480;19;130433;-35
2022/04/13 07:41:24;;;;;;;20.55;1.85;;;;;;;20.38;49.38;99536.81;7315640;19;129278;-34
2022/04/13 07:43:50;;;;;;;34.55;2.92;;;;;;;20.30;49.95;99514.00;7314072;19;129112;-34
2022/04/13 07:46:16;;;;;;;28.42;2.47;;;;;;;20.44;49.90;99541.50;7314387;19;128794;-32
2022/04/13 07:48:41;;;;;;;22.95;1.98;;;;;;;20.47;49.87;99538.63;7314341;19;129354;-35
2022/04/13 07:51:06;;;;;;;30.35;2.60;;;;;;;20.47;50.22;99536.03;7311759;19;158509;-37
2022/04/13 07:53:31;;;;;;;31.67;2.67;;;;;;;20.37;51.03;99516.88;7314331;19;130121;-38
2022/04/13 07:55:57;;;;;;;31.57;2.80;;;;;;;20.49;50.65;99549.78;7312830;19;154579;-31
2022/04/13 07:58:22;;;;;;;22.35;1.98;;;;;;;20.45;50.83;99532.72;7312559;19;146226;-39
2022/04/13 08:00:47;;;;;;;33.37;2.83;;;;;;;20.48;51.23;99545.50;7310861;19;159420;-33
2022/04/13 08:03:13;;;;;;;29.52;2.53;;;;;;;20.43;50.61;99545.06;7313500;19;154464;-37
2022/04/13 08:05:39;;;;;;;68.40;5.43;;;;;;;20.12;48.81;99546.03;7303820;19;154375;-42
2022/04/13 08:08:05;;;;;;;;;;;;;;;20.02;48.44;99529.50;7303250;19;130605;-31
2022/04/13 08:10:30;;;;;;;18.38;1.50;;;;;;;20.23;50.75;99544.19;7315614;19;130372;-33
2022/04/13 08:12:55;;;;;;;29.42;2.47;;;;;;;20.22;49.98;99539.94;7312699;19;155629;-33
2022/04/13 08:15:21;;;;;;;34.33;3.20;;;;;;;20.12;49.38;99544.25;7312152;19;154538;-36
2022/04/13 08:17:46;;;;;;;26.50;2.13;;;;;;;20.11;48.23;99544.41;7310606;19;157062;-30
2022/04/13 08:20:13;;;;;;;38.53;3.03;;;;;;;20.09;48.31;99548.91;7310144;19;158835;-36
2022/04/13 08:22:40;;;;;;;22.63;1.92;;;;;;;20.15;48.58;99551.84;7314746;19;130517;-32
2022/04/13 08:25:05;;;;;;;16.50;1.48;;;;;;;20.14;48.03;99554.56;7312954;19;130340;-37
2022/04/13 08:27:30;;;;;;;32.72;2.80;;;;;;;20.17;48.10;99543.88;7313664;19;130835;-33
2022/04/13 08:29:56;;;;;;;38.20;3.00;;;;;;;20.17;47.78;99543.88;7306819;19;141763;-35
2022/04/13 08:32:22;;;;;;;28.17;2.23;;;;;;;20.15;47.47;99545.78;7310460;19;154517;-38
2022/04/13 08:34:52;;;;;;;35.70;2.70;;;;;;;20.20;47.40;99543.63;7311141;19;130082;-37
2022/04/13 08:37:18;;;;;;;22.15;1.83;;;;;;;20.27;47.38;99555.19;7310851;19;130958;-35
2022/04/13 08:39:43;;;;;;;30.47;2.40;;;;;;;20.30;47.34;99547.09;7311501;19;130711;-33
2022/04/13 08:42:37;;;;;;;25.10;2.20;;;;;;;20.20;47.46;99535.78;7311867;19;154801;-41
2022/04/13 08:45:19;;;;;;;23.77;2.17;;;;;;;20.27;47.67;99550.81;7313081;19;129943;-37
2022/04/13 08:47:46;;;;;;;24.40;2.00;;;;;;;20.47;47.41;99546.47;7311923;19;159278;-34
2022/04/13 08:50:12;;;;;;;22.30;1.77;;;;;;;20.38;47.95;99544.63;7310692;19;129609;-40
2022/04/13 08:52:39;;;;;;;9.52;0.93;;;;;;;20.37;48.88;99540.38;7313253;19;129476;-38
2022/04/13 08:55:07;;;;;;;27.27;2.20;;;;;;;20.36;49.36;99549.19;7313138;19;128846;-38
2022/04/13 08:57:36;;;;;;;31.88;2.55;;;;;;;20.42;50.22;99552.09;7311996;19;130221;-42
2022/04/13 09:00:08;;;;;;;11.10;1.13;;;;;;;20.42;50.32;99551.25;7311259;19;129296;-41
2022/04/13 09:02:43;;;;;;;31.58;2.63;;;;;;;20.44;51.09;99551.97;7313895;19;131090;-33
2022/04/13 09:05:12;;;;;;;26.35;2.22;;;;;;;20.46;50.36;99560.50;7313762;19;129117;-37
2022/04/13 09:07:38;;;;;;;13.85;1.42;;;;;;;20.46;50.60;99555.28;7312689;19;130944;-32
2022/04/13 09:10:07;;;;;;;;;;;;;;;20.49;51.51;99544.56;7310469;19;130283;-32
2022/04/13 09:12:35;;;;;;;19.83;1.65;;;;;;;20.43;50.25;99545.06;7314102;19;129588;-37
2022/04/13 09:15:01;;;;;;;23.45;1.80;;;;;;;20.45;50.31;99548.38;7313351;19;129605;-36
2022/04/13 09:17:29;;;;;;;20.77;1.67;;;;;;;20.25;49.06;99547.50;7312583;19;129542;-41
2022/04/13 09:19:56;;;;;;;36.55;2.97;;;;;;;20.09;48.63;99548.91;7308167;19;130966;-34
2022/04/13 09:22:22;;;;;;;19.52;1.63;;;;;;;20.16;48.49;99543.06;7313330;19;129294;-34
2022/04/13 09:24:48;;;;;;;37.25;3.15;;;;;;;20.15;48.46;99545.78;7312361;19;128839;-35
2022/04/13 09:27:14;;;;;;;24.02;2.00;;;;;;;20.17;47.92;99543.88;7311650;19;131546;-39
2022/04/13 09:29:40;;;;;;;22.97;1.87;;;;;;;20.16;47.28;99547.47;7311339;19;130211;-40
2022/04/13 09:32:07;;;;;;;31.92;2.53;;;;;;;20.13;47.36;99548.50;7313149;19;129660;-34
2022/04/13 09:34:32;;;;;;;20.70;1.75;;;;;;;20.17;47.25;99549.94;7311715;19;130031;-39
2022/04/13 09:36:57;;;;;;;29.33;2.28;;;;;;;20.23;47.65;99559.03;7309125;19;158195;-38
2022/04/13 09:39:23;;;;;;;21.35;1.75;;;;;;;20.15;47.49;99546.63;7306941;19;159783;-31
2022/04/13 09:41:50;;;;;;;29.05;2.33;;;;;;;20.21;47.33;99551.31;7312026;19;131048;-34
2022/04/13 09:44:18;;;;;;;32.13;2.47;;;;;;;20.10;47.62;99537.50;7310935;19;129239;-42
2022/04/13 09:46:44;;;;;;;19.27;1.65;;;;;;;20.41;47.65;99547.00;7312110;19;130471;-32
2022/04/13 09:49:15;;;;;;;27.93;2.33;;;;;;;20.36;49.37;99547.38;7310548;19;129555;-36
2022/04/13 09:51:43;;;;;;;24.50;1.95;;;;;;;20.25;50.06;99531.00;7311401;19;129187;-31
2022/04/13 09:54:12;;;;;;;28.02;2.17;;;;;;;20.36;50.05;99549.19;7311357;19;128995;-36
2022/04/13 09:56:44;;;;;;;26.20;2.20;;;;;;;20.38;50.42;99536.81;7311632;19;129326;-35
2022/04/13 09:59:11;;;;;;;25.88;2.05;;;;;;;20.41;50.62;99549.63;7310817;19;130483;-34
2022/04/13 10:01:36;;;;;;;24.70;2.30;;;;;;;20.43;50.42;99550.28;7311022;19;131575;-33
2022/04/13 10:04:07;;;;;;;21.92;1.83;;;;;;;20.43;50.10;99545.91;7312000;19;129061;-38
2022/04/13 10:06:35;;;;;;;8.30;0.73;;;;;;;20.43;50.48;99550.28;7311271;19;130164;-40
2022/04/13 10:09:06;;;;;;;21.30;1.73;;;;;;;20.43;51.31;99537.22;7310089;19;129185;-37
2022/04/13 10:11:31;;;;;;;9.50;0.88;;;;;;;20.43;51.37;99538.06;7311103;19;128972;-36
2022/04/13 10:14:00;;;;;;;25.40;2.03;;;;;;;20.26;48.93;99535.28;7310699;19;129553;-40
2022/04/13 10:16:31;;;;;;;22.50;1.92;;;;;;;20.09;48.08;99535.84;7308508;19;130244;-36
2022/04/13 10:18:59;;;;;;;23.83;1.88;;;;;;;19.95;47.74;99516.16;7308379;19;129924;-35
2022/04/13 10:21:40;;;;;;;19.73;1.67;;;;;;;20.08;47.61;99534.22;7311307;19;129089;-39
2022/04/13 10:24:07;;;;;;;20.75;1.70;;;;;;;20.12;48.36;99532.97;7310312;19;129964;-30
2022/04/13 10:26:33;;;;;;;30.85;2.50;;;;;;;20.26;50.89;99514.41;7310154;19;129639;-39
2022/04/13 10:28:58;;;;;;;22.52;1.98;;;;;;;20.05;49.18;99534.47;7309070;19;133012;-30
2022/04/13 10:31:23;;;;;;;23.35;1.80;;;;;;;20.04;48.83;99532.81;7311471;19;154480;-37
2022/04/13 10:33:50;;;;;;;32.45;2.50;;;;;;;20.05;48.40;99530.06;7316091;19;153981;-35
2022/04/13 10:36:16;;;;;;;30.38;2.35;;;;;;;20.12;47.82;99536.44;7316494;19;131256;-37
2022/04/13 10:38:43;;;;;;;13.32;1.23;;;;;;;20.17;47.76;99536.06;7315784;19;130470;-41
2022/04/13 10:41:14;;;;;;;34.15;2.72;;;;;;;20.03;47.76;99515.53;7316165;19;130861;-31
2022/04/13 10:43:41;;;;;;;36.22;3.13;;;;;;;20.14;48.02;99533.69;7317431;19;129202;-40
2022/04/13 10:46:09;;;;;;;;;;;;;;;20.10;47.79;99527.06;7317846;19;129489;-33
2022/04/13 10:48:40;;;;;;;25.23;1.97;;;;;;;20.12;47.34;99530.38;7317690;19;130369;-34
2022/04/13 10:51:22;;;;;;;25.67;2.03;;;;;;;20.21;47.68;99534.84;7317418;19;129210;-36
2022/04/13 10:53:58;;;;;;;40.03;3.45;;;;;;;20.23;47.42;99533.75;7316467;19;129174;-31
2022/04/13 10:56:26;;;;;;;29.00;2.42;;;;;;;20.30;47.55;99531.44;7317243;19;131508;-33
2022/04/13 10:59:01;;;;;;;25.15;1.92;;;;;;;20.29;47.54;99528.00;7315893;19;132243;-39
2022/04/13 11:01:31;;;;;;;30.60;2.47;;;;;;;20.44;47.61;99526.66;7317098;19;128973;-37
2022/04/13 11:03:57;;;;;;;27.55;2.20;;;;;;;20.37;48.49;99530.78;7315511;19;129750;-38
2022/04/13 11:06:24;;;;;;;26.90;2.13;;;;;;;20.26;48.41;99522.22;7314891;19;158792;-32
2022/04/13 11:08:57;;;;;;;27.73;2.28;;;;;;;20.37;50.14;99538.63;7315471;19;129486;-35
2022/04/13 11:11:24;;;;;;;28.15;2.17;;;;;;;20.42;50.02;99532.97;7316848;19;128870;-35
2022/04/13 11:13:51;;;;;;;27.98;2.38;;;;;;;20.34;49.75;99514.56;7315272;19;128835;-36
2022/04/13 11:16:23;;;;;;;;;;;;;;;20.48;50.69;99527.22;7315594;19;129470;-39